Time;durP1;ratioP1;P1;durP2;ratioP2;P2;SDS_P1;SDS_P2;PMS_P1;PMS_P2;Temp;Humidity;BMP_temperature;BMP_pressure;BME280_temperature;BME280_humidity;BME280_pressure;Samples;Min_cycle;Max_cycle;Signal;HPM_P1;HPM_P2
2023/08/01 00:00:44;;;;;;;10.30;9.40;;;17.50;99.90;;;;;;5094285;28;20462;-70
2023/08/01 00:03:13;;;;;;;10.67;9.87;;;17.50;99.90;;;;;;5094190;28;20594;-70
2023/08/01 00:05:44;;;;;;;9.87;9.07;;;17.50;99.90;;;;;;5092932;28;20535;-69
2023/08/01 00:08:13;;;;;;;11.10;10.10;;;17.50;99.90;;;;;;5094430;28;20420;-70
2023/08/01 00:10:41;;;;;;;11.23;10.23;;;17.50;99.90;;;;;;5094160;28;20486;-70
2023/08/01 00:13:09;;;;;;;10.23;9.43;;;17.50;99.90;;;;;;5094143;28;20474;-70
2023/08/01 00:15:37;;;;;;;10.33;9.50;;;17.50;99.90;;;;;;5093907;28;20774;-70
2023/08/01 00:18:10;;;;;;;11.13;10.00;;;17.50;99.90;;;;;;5092994;28;20772;-70
2023/08/01 00:20:39;;;;;;;12.23;11.17;;;17.50;99.90;;;;;;5093380;28;20960;-70
2023/08/01 00:23:07;;;;;;;10.93;9.97;;;17.50;99.90;;;;;;5096533;28;20525;-70
2023/08/01 00:25:35;;;;;;;12.53;11.47;;;17.50;99.90;;;;;;5096740;28;20439;-70
2023/08/01 00:28:04;;;;;;;12.33;11.33;;;17.50;99.90;;;;;;5097281;28;20842;-70
2023/08/01 00:30:32;;;;;;;12.07;10.87;;;17.50;99.90;;;;;;5095378;28;20460;-70
2023/08/01 00:33:00;;;;;;;12.70;11.70;;;17.50;99.90;;;;;;5097105;28;20460;-70
2023/08/01 00:35:29;;;;;;;12.20;11.20;;;17.50;99.90;;;;;;5096264;28;20444;-70
2023/08/01 00:37:58;;;;;;;11.70;10.73;;;17.50;99.90;;;;;;5094989;28;20928;-70
2023/08/01 00:40:31;;;;;;;11.00;10.10;;;17.50;99.90;;;;;;5095625;28;20441;-70
2023/08/01 00:42:59;;;;;;;11.77;10.70;;;17.50;99.90;;;;;;5096800;28;20431;-70
2023/08/01 00:45:27;;;;;;;11.87;10.73;;;17.50;99.90;;;;;;5095462;28;20426;-70
2023/08/01 00:47:56;;;;;;;11.00;10.10;;;17.50;99.90;;;;;;5095087;28;20425;-70
2023/08/01 00:50:24;;;;;;;12.27;11.03;;;17.40;99.90;;;;;;5096011;28;20464;-70
2023/08/01 00:52:54;;;;;;;12.60;11.40;;;17.40;99.90;;;;;;5095056;28;20456;-70
2023/08/01 00:55:23;;;;;;;12.13;11.03;;;17.40;99.90;;;;;;5094948;28;20440;-70
2023/08/01 00:57:53;;;;;;;11.90;10.87;;;17.40;99.90;;;;;;5094337;28;20493;-70
2023/08/01 01:00:21;;;;;;;11.70;10.80;;;17.40;99.90;;;;;;5094899;28;20839;-70
2023/08/01 01:02:49;;;;;;;13.47;10.80;;;17.40;99.90;;;;;;5094404;28;20456;-70
2023/08/01 01:05:18;;;;;;;12.20;11.07;;;17.40;99.90;;;;;;5097772;28;20441;-70
2023/08/01 01:07:46;;;;;;;11.70;10.80;;;17.40;99.90;;;;;;5095938;28;20427;-70
2023/08/01 01:10:16;;;;;;;11.83;10.73;;;17.40;99.90;;;;;;5094829;28;20468;-70
2023/08/01 01:12:44;;;;;;;11.30;10.20;;;17.30;99.90;;;;;;5094333;28;20447;-70
2023/08/01 01:15:12;;;;;;;11.87;10.80;;;17.30;99.90;;;;;;5095237;28;20436;-70
2023/08/01 01:17:40;;;;;;;11.73;10.60;;;17.30;99.90;;;;;;5093261;28;20941;-70
2023/08/01 01:20:09;;;;;;;11.27;10.20;;;17.30;99.90;;;;;;5095626;28;20410;-68
2023/08/01 01:22:39;;;;;;;12.10;10.90;;;17.30;99.90;;;;;;5095653;28;20452;-68
2023/08/01 01:25:11;;;;;;;11.13;10.13;;;17.30;99.90;;;;;;5095180;28;20448;-68
2023/08/01 01:27:40;;;;;;;12.40;11.20;;;17.30;99.90;;;;;;5096287;28;20437;-68
2023/08/01 01:30:09;;;;;;;12.07;10.63;;;17.30;99.90;;;;;;5096359;28;20915;-68
2023/08/01 01:32:37;;;;;;;11.90;10.60;;;17.30;99.90;;;;;;5095587;28;20452;-68
2023/08/01 01:35:06;;;;;;;11.37;10.20;;;17.30;99.90;;;;;;5097088;28;20439;-68
2023/08/01 01:37:35;;;;;;;11.07;9.97;;;17.30;99.90;;;;;;5098268;28;20527;-68
2023/08/01 01:40:05;;;;;;;11.90;10.70;;;17.30;99.90;;;;;;5098163;28;20521;-68
2023/08/01 01:42:33;;;;;;;11.93;10.73;;;17.30;99.90;;;;;;5096526;28;20467;-68
2023/08/01 01:45:01;;;;;;;11.47;10.37;;;17.30;99.90;;;;;;5096206;28;20494;-68
2023/08/01 01:47:29;;;;;;;12.17;10.97;;;17.30;99.90;;;;;;5099008;28;20449;-68
2023/08/01 01:49:57;;;;;;;11.40;10.13;;;17.30;99.90;;;;;;5098668;28;20467;-68
2023/08/01 01:52:25;;;;;;;10.37;9.47;;;17.30;99.90;;;;;;5092675;28;20471;-68
2023/08/01 01:54:53;;;;;;;11.60;10.43;;;17.30;99.90;;;;;;5095040;28;20450;-68
2023/08/01 01:57:23;;;;;;;11.40;10.30;;;17.20;99.90;;;;;;5095991;28;20501;-68
2023/08/01 01:59:51;;;;;;;11.33;10.27;;;17.20;99.90;;;;;;5096050;28;20468;-68
2023/08/01 02:02:19;;;;;;;11.80;10.70;;;17.20;99.90;;;;;;5095372;28;20517;-68
2023/08/01 02:04:49;;;;;;;12.47;11.30;;;17.30;99.90;;;;;;5096753;28;20411;-68
2023/08/01 02:07:17;;;;;;;13.00;10.53;;;17.20;99.90;;;;;;5095223;28;20936;-68
2023/08/01 02:09:46;;;;;;;13.60;11.50;;;17.20;99.90;;;;;;5095145;28;20454;-68
2023/08/01 02:12:14;;;;;;;12.80;11.50;;;17.20;99.90;;;;;;5095191;28;20467;-68
2023/08/01 02:14:44;;;;;;;12.07;11.03;;;17.20;99.90;;;;;;5095558;28;20500;-68
2023/08/01 02:17:12;;;;;;;14.10;12.80;;;17.10;99.90;;;;;;5095112;28;20422;-68
2023/08/01 02:19:40;;;;;;;14.10;12.80;;;17.10;99.90;;;;;;5095178;28;20789;-68
2023/08/01 02:22:08;;;;;;;13.70;12.33;;;17.10;99.90;;;;;;5095075;28;20443;-69
2023/08/01 02:24:36;;;;;;;13.57;12.30;;;17.10;99.90;;;;;;5094956;28;20414;-69
2023/08/01 02:27:05;;;;;;;13.47;12.07;;;17.10;99.90;;;;;;5096251;28;20924;-69
2023/08/01 02:29:33;;;;;;;17.03;13.23;;;17.10;99.90;;;;;;5096346;28;20787;-69
2023/08/01 02:32:03;;;;;;;14.07;12.10;;;17.10;99.90;;;;;;5094690;28;21044;-68
2023/08/01 02:34:32;;;;;;;13.70;12.50;;;17.10;99.90;;;;;;5094752;28;20422;-68
2023/08/01 02:37:00;;;;;;;14.10;12.80;;;17.10;99.90;;;;;;5095902;28;20489;-68
2023/08/01 02:39:28;;;;;;;13.70;12.40;;;17.10;99.90;;;;;;5095752;28;20944;-68
2023/08/01 02:41:56;;;;;;;14.47;12.93;;;17.10;99.90;;;;;;5094464;28;20811;-69
2023/08/01 02:44:24;;;;;;;14.47;12.97;;;17.10;99.90;;;;;;5094541;28;20539;-68
2023/08/01 02:46:52;;;;;;;13.40;12.20;;;17.10;99.90;;;;;;5094492;28;20510;-68
2023/08/01 02:49:22;;;;;;;16.07;14.67;;;17.10;99.90;;;;;;5094460;28;20505;-68
2023/08/01 02:51:50;;;;;;;15.37;13.87;;;17.10;99.90;;;;;;5095547;28;20458;-68
2023/08/01 02:54:18;;;;;;;15.87;14.43;;;17.10;99.90;;;;;;5094352;28;20418;-68
2023/08/01 02:56:46;;;;;;;13.90;12.60;;;17.10;99.90;;;;;;5095558;28;20407;-68
2023/08/01 02:59:14;;;;;;;14.73;13.23;;;17.10;99.90;;;;;;5094230;28;20417;-68
2023/08/01 03:01:42;;;;;;;16.00;14.37;;;17.10;99.90;;;;;;5095978;28;20551;-68
2023/08/01 03:04:11;;;;;;;15.63;14.13;;;17.10;99.90;;;;;;5095956;28;20411;-68
2023/08/01 03:06:41;;;;;;;17.67;15.90;;;17.10;99.90;;;;;;5093522;28;20419;-68
2023/08/01 03:09:09;;;;;;;18.50;16.60;;;17.10;99.90;;;;;;5095593;28;20421;-68
2023/08/01 03:11:37;;;;;;;19.87;17.87;;;17.10;99.90;;;;;;5093862;28;20524;-69
2023/08/01 03:14:05;;;;;;;17.53;15.93;;;17.10;99.90;;;;;;5093980;28;20427;-68
2023/08/01 03:16:34;;;;;;;20.80;18.77;;;17.10;99.90;;;;;;5093945;28;20546;-68
2023/08/01 03:19:04;;;;;;;20.13;18.13;;;17.10;99.90;;;;;;5095188;28;20407;-68
2023/08/01 03:21:33;;;;;;;21.87;19.70;;;17.10;99.90;;;;;;5093970;28;20440;-68
2023/08/01 03:24:03;;;;;;;19.60;17.70;;;17.10;99.90;;;;;;5093745;28;20471;-68
2023/08/01 03:26:31;;;;;;;24.03;18.47;;;17.00;99.90;;;;;;5095067;28;20787;-68
2023/08/01 03:28:59;;;;;;;19.60;17.73;;;17.00;99.90;;;;;;5094999;28;20482;-68
2023/08/01 03:31:29;;;;;;;19.40;17.57;;;17.00;99.90;;;;;;5093569;28;20438;-68
2023/08/01 03:33:58;;;;;;;19.50;17.60;;;17.00;99.90;;;;;;5093522;28;20411;-68
2023/08/01 03:36:26;;;;;;;21.60;19.20;;;16.90;99.90;;;;;;5093555;28;20419;-68
2023/08/01 03:38:54;;;;;;;21.37;19.27;;;16.90;99.90;;;;;;5093329;28;20434;-69
2023/08/01 03:41:24;;;;;;;20.37;18.27;;;16.90;99.90;;;;;;5095140;28;20431;-68
2023/08/01 03:43:52;;;;;;;23.73;19.33;;;16.90;99.90;;;;;;5093381;28;20451;-68
2023/08/01 03:46:20;;;;;;;22.23;19.93;;;16.90;99.90;;;;;;5094576;28;20825;-68
2023/08/01 03:48:49;;;;;;;21.07;18.87;;;16.80;99.90;;;;;;5093247;28;20415;-69
2023/08/01 03:51:19;;;;;;;20.70;18.60;;;16.80;99.90;;;;;;5094969;28;20836;-68
2023/08/01 03:53:47;;;;;;;21.50;19.30;;;16.80;99.90;;;;;;5093164;28;20419;-68
2023/08/01 03:56:32;;;;;;;24.07;19.90;;;16.80;99.90;;;;;;5094703;28;20392;-68
2023/08/01 03:59:00;;;;;;;22.63;20.37;;;16.80;99.90;;;;;;5093077;28;21003;-68
2023/08/01 04:01:28;;;;;;;20.73;18.80;;;16.90;99.90;;;;;;5094392;28;20411;-68
2023/08/01 04:03:56;;;;;;;20.60;18.60;;;16.80;99.90;;;;;;5094556;28;20435;-68
2023/08/01 04:06:24;;;;;;;24.20;21.60;;;16.80;99.90;;;;;;5094211;28;20437;-68
2023/08/01 04:08:52;;;;;;;22.87;20.57;;;16.80;99.90;;;;;;5092927;28;20472;-70
2023/08/01 04:11:20;;;;;;;23.00;20.37;;;16.80;99.90;;;;;;5092723;28;20474;-71
2023/08/01 04:13:50;;;;;;;25.03;21.23;;;16.80;99.90;;;;;;5092827;28;20514;-71
2023/08/01 04:16:18;;;;;;;23.23;20.73;;;16.80;99.90;;;;;;5094060;28;20472;-71
2023/08/01 04:18:46;;;;;;;23.33;21.03;;;16.80;99.90;;;;;;5093170;28;20446;-71
2023/08/01 04:21:15;;;;;;;23.80;21.40;;;16.80;99.90;;;;;;5094581;28;20909;-71
2023/08/01 04:23:43;;;;;;;23.27;20.97;;;16.80;99.90;;;;;;5092662;28;20496;-71
2023/08/01 04:26:11;;;;;;;23.13;20.73;;;16.80;99.90;;;;;;5093880;28;20506;-71
2023/08/01 04:28:39;;;;;;;25.53;22.83;;;16.80;99.90;;;;;;5093844;28;20407;-71
2023/08/01 04:31:09;;;;;;;24.20;21.80;;;16.80;99.90;;;;;;5092451;28;20434;-71
2023/08/01 04:33:37;;;;;;;22.70;20.43;;;16.70;99.90;;;;;;5092452;28;20456;-71
2023/08/01 04:36:05;;;;;;;24.27;21.63;;;16.70;99.90;;;;;;5094007;28;20919;-71
2023/08/01 04:38:33;;;;;;;20.60;18.50;;;16.70;99.90;;;;;;5092217;28;20525;-71
2023/08/01 04:41:02;;;;;;;18.83;17.03;;;16.70;99.90;;;;;;5094013;28;20419;-70
2023/08/01 04:43:30;;;;;;;18.27;16.47;;;16.70;99.90;;;;;;5093560;28;20423;-71
2023/08/01 04:45:58;;;;;;;17.17;14.10;;;16.60;99.90;;;;;;5093724;28;20411;-68
2023/08/01 04:48:28;;;;;;;15.60;14.00;;;16.60;99.90;;;;;;5093606;28;20908;-68
2023/08/01 04:50:56;;;;;;;12.83;11.73;;;16.60;99.90;;;;;;5093515;28;20447;-68
2023/08/01 04:53:24;;;;;;;13.97;12.47;;;16.60;99.90;;;;;;5093658;28;20448;-68
2023/08/01 04:55:52;;;;;;;13.97;12.47;;;16.50;99.90;;;;;;5093545;28;20434;-68
2023/08/01 04:58:20;;;;;;;10.77;9.67;;;16.50;99.90;;;;;;5093507;28;20442;-68
2023/08/01 05:00:49;;;;;;;11.90;9.47;;;16.50;99.90;;;;;;5093388;28;20509;-68
2023/08/01 05:03:18;;;;;;;8.90;8.10;;;16.50;99.90;;;;;;5093489;28;20427;-68
2023/08/01 05:05:47;;;;;;;9.70;8.90;;;16.50;99.90;;;;;;5092633;28;20793;-68
2023/08/01 05:08:15;;;;;;;9.33;8.07;;;16.50;99.90;;;;;;5093328;28;20409;-68
2023/08/01 05:10:43;;;;;;;8.47;7.50;;;16.50;99.90;;;;;;5091957;28;20984;-68
2023/08/01 05:13:11;;;;;;;9.80;8.47;;;16.40;99.90;;;;;;5093095;28;20480;-68
2023/08/01 05:15:39;;;;;;;8.60;7.90;;;16.40;99.90;;;;;;5093255;28;20497;-68
2023/08/01 05:18:07;;;;;;;8.77;7.97;;;16.40;99.90;;;;;;5093249;28;20403;-68
2023/08/01 05:20:35;;;;;;;11.33;9.17;;;16.40;99.90;;;;;;5093489;28;20493;-68
2023/08/01 05:23:05;;;;;;;11.40;9.57;;;16.40;99.90;;;;;;5093379;28;20431;-68
2023/08/01 05:25:33;;;;;;;10.07;9.17;;;16.40;99.90;;;;;;5093455;28;20499;-68
2023/08/01 05:28:01;;;;;;;9.83;8.83;;;16.40;99.90;;;;;;5093167;28;20407;-68
2023/08/01 05:30:29;;;;;;;11.27;9.10;;;16.40;99.90;;;;;;5095389;28;20428;-68
2023/08/01 05:32:57;;;;;;;10.83;9.20;;;16.40;99.90;;;;;;5096265;28;20503;-68
2023/08/01 05:35:25;;;;;;;9.83;8.87;;;16.40;99.90;;;;;;5097144;28;20434;-68
2023/08/01 05:37:53;;;;;;;11.43;10.30;;;16.40;99.90;;;;;;5097106;28;20415;-68
2023/08/01 05:40:23;;;;;;;12.50;9.77;;;16.40;99.90;;;;;;5095766;28;20452;-68
2023/08/01 05:42:51;;;;;;;13.03;11.07;;;16.40;99.90;;;;;;5097040;28;20869;-68
2023/08/01 05:45:19;;;;;;;13.30;11.80;;;16.40;99.90;;;;;;5096969;28;20836;-70
2023/08/01 05:47:47;;;;;;;12.50;11.40;;;16.40;99.90;;;;;;5096885;28;20414;-69
2023/08/01 05:50:15;;;;;;;12.03;10.80;;;16.40;99.90;;;;;;5097178;28;20415;-69
2023/08/01 05:52:43;;;;;;;15.00;13.47;;;16.40;99.90;;;;;;5095387;28;20454;-69
2023/08/01 05:55:12;;;;;;;16.87;13.37;;;16.40;99.90;;;;;;5095498;28;20453;-69
2023/08/01 05:57:41;;;;;;;14.40;13.10;;;16.40;99.90;;;;;;5097016;28;20956;-69
2023/08/01 06:00:10;;;;;;;16.53;15.03;;;16.50;99.90;;;;;;5096684;28;20424;-69
2023/08/01 06:02:41;;;;;;;14.97;13.47;;;16.50;99.90;;;;;;5097213;28;20450;-70
2023/08/01 06:05:09;;;;;;;18.63;15.10;;;16.50;99.90;;;;;;5097180;28;20482;-69
2023/08/01 06:07:37;;;;;;;16.70;14.37;;;16.60;99.90;;;;;;5096653;28;20957;-69
2023/08/01 06:10:06;;;;;;;16.17;14.60;;;16.70;99.90;;;;;;5095253;28;20484;-69
2023/08/01 06:12:34;;;;;;;16.93;15.30;;;16.70;99.90;;;;;;5095139;28;20467;-69
2023/08/01 06:15:04;;;;;;;19.90;17.17;;;16.70;99.90;;;;;;5095094;28;20444;-69
2023/08/01 06:17:33;;;;;;;18.87;16.97;;;16.70;99.90;;;;;;5096435;28;20420;-70
2023/08/01 06:20:03;;;;;;;19.93;17.17;;;16.70;99.90;;;;;;5095082;28;20501;-69
2023/08/01 06:22:32;;;;;;;21.23;18.80;;;16.80;99.90;;;;;;5094943;28;21001;-69
2023/08/01 06:25:00;;;;;;;21.90;17.40;;;16.80;99.90;;;;;;5096329;28;20457;-69
2023/08/01 06:27:28;;;;;;;20.10;17.90;;;16.80;99.90;;;;;;5096204;28;20441;-70
2023/08/01 06:29:56;;;;;;;20.37;18.17;;;16.80;99.90;;;;;;5096118;28;20411;-69
2023/08/01 06:32:26;;;;;;;17.53;15.90;;;16.90;99.90;;;;;;5096228;28;20504;-69
2023/08/01 06:34:54;;;;;;;17.20;15.80;;;17.00;99.90;;;;;;5096332;28;20957;-69
2023/08/01 06:37:22;;;;;;;16.67;15.07;;;17.10;99.90;;;;;;5094725;28;20422;-70
2023/08/01 06:39:50;;;;;;;15.80;14.43;;;17.20;99.90;;;;;;5095775;28;20421;-70
2023/08/01 06:42:18;;;;;;;15.90;14.23;;;17.20;99.90;;;;;;5094953;28;21007;-69
2023/08/01 06:44:47;;;;;;;19.87;16.00;;;17.20;99.90;;;;;;5095891;28;20494;-69
2023/08/01 06:47:15;;;;;;;17.80;15.60;;;17.20;99.90;;;;;;5095745;28;20920;-69
2023/08/01 06:49:45;;;;;;;15.77;14.37;;;17.20;99.90;;;;;;5096536;28;20411;-70
2023/08/01 06:52:13;;;;;;;16.30;14.63;;;17.20;99.90;;;;;;5095538;28;20550;-70
2023/08/01 06:54:41;;;;;;;14.20;12.80;;;17.20;99.90;;;;;;5095893;28;20415;-69
2023/08/01 06:57:09;;;;;;;12.50;11.23;;;17.20;99.90;;;;;;5095676;28;20436;-69
2023/08/01 06:59:37;;;;;;;10.73;9.40;;;17.10;99.90;;;;;;5095791;28;20435;-69
2023/08/01 07:02:06;;;;;;;11.73;9.50;;;17.10;99.90;;;;;;5095724;28;20928;-69
2023/08/01 07:04:35;;;;;;;8.57;6.37;;;17.10;99.90;;;;;;5095766;28;20415;-69
2023/08/01 07:07:05;;;;;;;8.40;7.70;;;17.10;99.90;;;;;;5095534;28;20929;-69
2023/08/01 07:09:34;;;;;;;9.50;7.27;;;17.10;99.90;;;;;;5096044;28;20394;-69
2023/08/01 07:12:03;;;;;;;6.53;5.70;;;17.10;99.90;;;;;;5095913;28;20546;-69
2023/08/01 07:14:31;;;;;;;5.50;4.93;;;17.10;99.90;;;;;;5095416;28;20509;-70
2023/08/01 07:16:59;;;;;;;7.83;5.40;;;17.10;99.90;;;;;;5094077;28;20509;-69
2023/08/01 07:19:27;;;;;;;5.67;4.57;;;17.20;99.90;;;;;;5095204;28;20470;-69
2023/08/01 07:21:55;;;;;;;8.50;5.40;;;17.20;99.90;;;;;;5095545;28;20513;-69
2023/08/01 07:24:27;;;;;;;6.67;4.90;;;17.20;99.90;;;;;;5095285;28;20387;-69
2023/08/01 07:26:56;;;;;;;5.37;4.93;;;17.20;99.90;;;;;;5095585;28;20432;-69
2023/08/01 07:29:24;;;;;;;5.83;3.90;;;17.20;99.90;;;;;;5094276;28;20986;-69
2023/08/01 07:31:53;;;;;;;4.57;4.07;;;17.20;99.90;;;;;;5095003;28;20430;-69
2023/08/01 07:34:21;;;;;;;4.60;3.80;;;17.20;99.90;;;;;;5093689;28;20495;-70
2023/08/01 07:36:51;;;;;;;7.07;3.47;;;17.20;99.90;;;;;;5095274;28;20810;-70
2023/08/01 07:39:19;;;;;;;4.20;3.50;;;17.20;99.90;;;;;;5094695;28;21044;-69
2023/08/01 07:41:48;;;;;;;4.70;3.10;;;17.30;99.90;;;;;;5094995;28;20451;-69
2023/08/01 07:44:16;;;;;;;6.70;3.30;;;17.30;99.90;;;;;;5095332;28;20403;-69
2023/08/01 07:46:45;;;;;;;4.90;2.63;;;17.30;99.90;;;;;;5094999;28;20511;-69
2023/08/01 07:49:13;;;;;;;6.10;3.23;;;17.40;99.90;;;;;;5094698;28;20493;-69
2023/08/01 07:51:41;;;;;;;3.87;3.13;;;17.50;99.90;;;;;;5094774;28;20456;-69
2023/08/01 07:54:09;;;;;;;5.50;2.77;;;17.50;99.90;;;;;;5093160;28;20559;-69
2023/08/01 07:56:37;;;;;;;5.00;2.97;;;17.60;99.90;;;;;;5094480;28;20452;-69
2023/08/01 07:59:07;;;;;;;4.47;3.67;;;17.70;99.90;;;;;;5093334;28;20458;-69
2023/08/01 08:01:35;;;;;;;3.60;3.30;;;17.70;99.90;;;;;;5094603;28;20514;-69
2023/08/01 08:04:03;;;;;;;7.27;3.40;;;17.70;99.90;;;;;;5094396;28;20410;-69
2023/08/01 08:06:31;;;;;;;6.30;3.40;;;17.80;99.90;;;;;;5094336;28;20436;-69
2023/08/01 08:09:00;;;;;;;4.43;3.77;;;17.80;99.90;;;;;;5094520;28;20466;-70
2023/08/01 08:11:28;;;;;;;4.93;3.97;;;17.80;99.90;;;;;;5094406;28;20489;-70
2023/08/01 08:13:56;;;;;;;5.07;3.90;;;17.80;99.90;;;;;;5094518;28;20463;-69
2023/08/01 08:16:26;;;;;;;4.50;3.77;;;17.80;99.90;;;;;;5094610;28;20456;-69
2023/08/01 08:18:54;;;;;;;5.77;4.80;;;17.80;99.90;;;;;;5094052;28;20440;-69
2023/08/01 08:21:22;;;;;;;5.00;3.90;;;17.80;99.90;;;;;;5094233;28;20470;-69
2023/08/01 08:23:50;;;;;;;4.07;3.50;;;17.80;99.90;;;;;;5094065;28;20485;-69
2023/08/01 08:26:18;;;;;;;4.50;3.50;;;17.80;99.90;;;;;;5092936;28;20944;-69
2023/08/01 08:28:46;;;;;;;3.70;2.90;;;17.90;99.90;;;;;;5093794;28;20436;-69
2023/08/01 08:31:14;;;;;;;3.33;3.03;;;17.90;99.90;;;;;;5094388;28;20411;-69
2023/08/01 08:33:44;;;;;;;6.13;4.90;;;17.90;99.90;;;;;;5093699;28;20883;-69
2023/08/01 08:36:12;;;;;;;4.43;3.90;;;18.00;99.90;;;;;;5092622;28;20441;-69
2023/08/01 08:38:40;;;;;;;5.80;3.47;;;18.10;99.90;;;;;;5093730;28;20448;-69
2023/08/01 08:41:11;;;;;;;6.83;3.60;;;18.10;99.90;;;;;;5094523;28;20419;-69
2023/08/01 08:43:40;;;;;;;4.63;3.10;;;18.30;99.90;;;;;;5093755;28;20448;-69
2023/08/01 08:46:10;;;;;;;3.83;3.53;;;18.40;99.90;;;;;;5094271;28;20424;-69
2023/08/01 08:48:40;;;;;;;3.50;3.20;;;18.40;99.90;;;;;;5094110;28;20504;-69
2023/08/01 08:51:10;;;;;;;5.13;3.10;;;18.50;99.90;;;;;;5094356;28;20421;-69
2023/08/01 08:53:40;;;;;;;4.90;2.47;;;18.60;99.90;;;;;;5092275;28;20472;-69
2023/08/01 08:56:10;;;;;;;3.60;3.10;;;18.60;99.90;;;;;;5094227;28;20535;-69
2023/08/01 08:58:39;;;;;;;5.57;3.30;;;18.70;99.90;;;;;;5094061;28;20933;-69
2023/08/01 09:01:08;;;;;;;3.83;2.73;;;18.80;99.90;;;;;;5093615;28;20460;-69
2023/08/01 09:03:36;;;;;;;3.10;2.80;;;18.80;99.90;;;;;;5093720;28;20834;-69
2023/08/01 09:06:10;;;;;;;2.90;2.60;;;18.90;99.90;;;;;;5094052;28;20460;-69
2023/08/01 09:08:41;;;;;;;3.20;2.60;;;18.90;99.90;;;;;;5094407;28;20482;-70
2023/08/01 09:11:09;;;;;;;3.53;2.67;;;19.00;99.90;;;;;;5095065;28;20789;-69
2023/08/01 09:13:37;;;;;;;3.60;2.80;;;19.00;99.90;;;;;;5092640;28;20521;-70
2023/08/01 09:16:07;;;;;;;3.43;1.93;;;19.00;99.90;;;;;;5093994;28;20519;-70
2023/08/01 09:18:35;;;;;;;4.20;2.67;;;19.10;99.90;;;;;;5094356;28;20454;-69
2023/08/01 09:21:04;;;;;;;3.67;2.70;;;19.10;99.90;;;;;;5094014;28;20430;-69
2023/08/01 09:23:32;;;;;;;4.07;2.07;;;19.20;99.90;;;;;;5093946;28;20517;-69
2023/08/01 09:26:01;;;;;;;3.50;3.07;;;19.20;99.90;;;;;;5094092;28;20431;-69
2023/08/01 09:28:29;;;;;;;5.27;2.13;;;19.30;99.90;;;;;;5092702;28;20454;-70
2023/08/01 09:30:57;;;;;;;3.27;2.27;;;19.30;99.90;;;;;;5093916;28;20458;-70
2023/08/01 09:33:26;;;;;;;3.10;1.77;;;19.30;99.90;;;;;;5093656;28;20551;-70
2023/08/01 09:35:54;;;;;;;2.90;2.00;;;19.20;99.90;;;;;;5094660;28;20410;-70
2023/08/01 09:38:23;;;;;;;2.30;2.10;;;19.20;99.90;;;;;;5093831;28;20419;-70
2023/08/01 09:40:51;;;;;;;2.87;2.20;;;19.20;99.90;;;;;;5093634;28;20395;-70
2023/08/01 09:43:21;;;;;;;4.63;1.80;;;19.10;99.90;;;;;;5093881;28;20446;-70
2023/08/01 09:45:53;;;;;;;2.90;1.90;;;19.10;99.90;;;;;;5094517;28;20489;-70
2023/08/01 09:48:25;;;;;;;2.80;1.90;;;19.10;99.90;;;;;;5093817;28;20456;-70
2023/08/01 09:51:04;;;;;;;2.40;2.07;;;19.10;99.90;;;;;;5092372;28;20921;-70
2023/08/01 09:53:32;;;;;;;2.17;1.87;;;19.00;99.90;;;;;;5094117;28;20458;-70
2023/08/01 09:56:02;;;;;;;4.10;2.97;;;18.90;99.90;;;;;;5093813;28;20440;-70
2023/08/01 09:58:34;;;;;;;3.27;2.77;;;18.80;99.90;;;;;;5094225;28;20440;-70
2023/08/01 10:01:02;;;;;;;3.27;2.50;;;18.70;99.90;;;;;;5093762;28;20413;-70
2023/08/01 10:03:31;;;;;;;4.53;2.40;;;18.70;99.90;;;;;;5093795;28;20565;-70
2023/08/01 10:06:00;;;;;;;3.13;2.70;;;18.70;99.90;;;;;;5093677;28;20435;-70
2023/08/01 10:08:32;;;;;;;3.70;2.80;;;18.70;99.90;;;;;;5093952;28;20442;-70
2023/08/01 10:11:04;;;;;;;3.43;2.70;;;18.70;99.90;;;;;;5094069;28;20420;-70
2023/08/01 10:13:34;;;;;;;4.33;2.70;;;18.90;99.90;;;;;;5093709;28;20544;-70
2023/08/01 10:16:03;;;;;;;3.13;2.47;;;19.00;99.90;;;;;;5092245;28;20490;-70
2023/08/01 10:18:32;;;;;;;3.63;2.43;;;19.10;99.90;;;;;;5097296;28;20440;-70
2023/08/01 10:21:02;;;;;;;4.20;2.50;;;19.20;99.90;;;;;;5095855;28;20489;-70
2023/08/01 10:23:31;;;;;;;3.40;3.00;;;19.20;99.90;;;;;;5095364;28;20471;-70
2023/08/01 10:26:01;;;;;;;4.80;2.50;;;19.20;99.90;;;;;;5096253;28;20432;-70
2023/08/01 10:28:34;;;;;;;3.13;2.43;;;19.20;99.90;;;;;;5096213;28;20440;-70
2023/08/01 10:31:12;;;;;;;5.27;2.87;;;19.20;99.90;;;;;;5096323;28;20978;-70
2023/08/01 10:33:41;;;;;;;3.20;2.10;;;19.20;99.90;;;;;;5096105;28;20452;-70
2023/08/01 10:36:17;;;;;;;3.30;1.87;;;19.20;99.90;;;;;;5096080;28;20454;-70
2023/08/01 10:38:49;;;;;;;3.10;1.97;;;19.20;99.90;;;;;;5095767;28;20479;-70
2023/08/01 10:41:22;;;;;;;2.73;1.83;;;19.20;99.90;;;;;;5096570;28;20483;-70
2023/08/01 10:43:52;;;;;;;3.20;1.87;;;19.20;99.90;;;;;;5095908;28;20428;-70
2023/08/01 10:46:20;;;;;;;2.57;1.93;;;19.30;99.90;;;;;;5094734;28;20448;-70
2023/08/01 10:48:52;;;;;;;3.17;2.00;;;19.30;99.90;;;;;;5095818;28;20455;-70
2023/08/01 10:51:20;;;;;;;3.60;2.07;;;19.40;99.90;;;;;;5096362;28;20486;-70
2023/08/01 10:53:48;;;;;;;3.13;1.90;;;19.40;99.90;;;;;;5095644;28;20523;-70
2023/08/01 10:56:18;;;;;;;2.43;1.77;;;19.50;99.90;;;;;;5096140;28;20566;-70
2023/08/01 10:58:48;;;;;;;2.60;1.70;;;19.50;99.90;;;;;;5096309;28;20432;-70
2023/08/01 11:01:17;;;;;;;2.77;1.80;;;19.50;99.90;;;;;;5095780;28;20536;-70
2023/08/01 11:03:45;;;;;;;2.13;1.60;;;19.50;99.90;;;;;;5095436;28;20970;-70
2023/08/01 11:06:14;;;;;;;2.40;1.50;;;19.50;99.90;;;;;;5095857;28;20984;-70
2023/08/01 11:08:43;;;;;;;4.00;1.57;;;19.40;99.90;;;;;;5095755;28;20466;-70
2023/08/01 11:11:14;;;;;;;2.27;1.73;;;19.40;99.90;;;;;;5095343;28;20535;-70
2023/08/01 11:13:51;;;;;;;2.50;1.57;;;19.40;99.90;;;;;;5094010;28;20658;-70
2023/08/01 11:16:21;;;;;;;3.07;1.37;;;19.40;99.90;;;;;;5094004;28;20478;-70
2023/08/01 11:18:50;;;;;;;2.47;1.30;;;19.40;99.90;;;;;;5095763;28;20468;-70
2023/08/01 11:21:27;;;;;;;2.00;1.43;;;19.40;99.90;;;;;;5095467;28;20407;-70
2023/08/01 11:23:55;;;;;;;1.80;1.30;;;19.30;99.90;;;;;;5095429;28;20424;-70
2023/08/01 11:26:23;;;;;;;2.37;1.80;;;19.40;99.90;;;;;;5095326;28;20425;-70
2023/08/01 11:28:52;;;;;;;1.87;1.40;;;19.40;99.90;;;;;;5094757;28;20436;-70
2023/08/01 11:31:21;;;;;;;2.10;1.60;;;19.40;99.90;;;;;;5095572;28;20865;-70
2023/08/01 11:33:56;;;;;;;3.20;2.20;;;19.50;99.90;;;;;;5093686;28;21007;-70
2023/08/01 11:36:27;;;;;;;5.37;2.20;;;19.60;99.90;;;;;;5094917;28;20479;-70
2023/08/01 11:38:58;;;;;;;2.77;1.97;;;19.60;99.90;;;;;;5094739;28;20967;-70
2023/08/01 11:41:27;;;;;;;2.40;1.60;;;19.70;99.90;;;;;;5094787;28;20436;-70
2023/08/01 11:43:55;;;;;;;2.03;1.80;;;19.80;99.90;;;;;;5093528;28;20790;-70
2023/08/01 11:46:32;;;;;;;3.20;2.30;;;19.90;99.90;;;;;;5093440;28;20479;-70
2023/08/01 11:49:01;;;;;;;5.30;1.70;;;20.00;99.90;;;;;;5094954;28;20770;-70
2023/08/01 11:51:30;;;;;;;2.90;1.57;;;20.10;99.90;;;;;;5093230;28;20487;-70
2023/08/01 11:54:02;;;;;;;3.10;1.57;;;20.20;99.90;;;;;;5094858;28;20433;-70
2023/08/01 11:56:30;;;;;;;1.83;1.30;;;20.30;99.90;;;;;;5094507;28;20468;-69
2023/08/01 11:58:59;;;;;;;2.60;1.40;;;20.50;99.90;;;;;;5094421;28;20482;-70
2023/08/01 12:01:29;;;;;;;3.40;1.60;;;20.60;99.90;;;;;;5094596;28;20432;-70
2023/08/01 12:03:58;;;;;;;4.07;1.27;;;20.70;99.90;;;;;;5093144;28;20448;-70
2023/08/01 12:06:26;;;;;;;2.40;1.50;;;20.70;99.90;;;;;;5094397;28;20439;-70
2023/08/01 12:08:55;;;;;;;1.93;1.10;;;20.70;99.90;;;;;;5094524;28;20436;-70
2023/08/01 12:11:25;;;;;;;1.90;1.20;;;20.70;99.90;;;;;;5094252;28;20455;-70
2023/08/01 12:14:03;;;;;;;2.37;1.20;;;20.70;99.90;;;;;;5094140;28;20436;-70
2023/08/01 12:16:33;;;;;;;2.43;1.50;;;20.70;99.90;;;;;;5094723;28;20509;-70
2023/08/01 12:19:01;;;;;;;1.83;1.30;;;20.70;99.90;;;;;;5092786;28;20474;-70
2023/08/01 12:21:29;;;;;;;2.10;1.40;;;20.60;99.90;;;;;;5093915;28;20438;-70
2023/08/01 12:23:58;;;;;;;2.00;1.37;;;20.60;99.90;;;;;;5092770;28;20486;-70
2023/08/01 12:26:26;;;;;;;2.40;1.60;;;20.50;99.90;;;;;;5094513;28;20498;-70
2023/08/01 12:28:54;;;;;;;1.77;1.20;;;20.40;99.90;;;;;;5093998;28;20460;-70
2023/08/01 12:31:23;;;;;;;2.13;1.40;;;20.30;99.90;;;;;;5093916;28;20486;-70
2023/08/01 12:33:53;;;;;;;2.37;1.53;;;20.10;99.90;;;;;;5092896;28;20445;-69
2023/08/01 12:36:22;;;;;;;1.90;1.60;;;20.00;99.90;;;;;;5093690;28;20973;-70
2023/08/01 12:38:50;;;;;;;4.27;1.90;;;19.90;99.90;;;;;;5091852;28;20980;-70
2023/08/01 12:41:19;;;;;;;1.93;1.43;;;19.90;99.90;;;;;;5093447;28;20432;-70
2023/08/01 12:43:47;;;;;;;2.23;1.80;;;19.90;99.90;;;;;;5093673;28;20999;-70
2023/08/01 12:46:15;;;;;;;4.80;1.60;;;20.00;99.90;;;;;;5093729;28;20428;-69